RJTT/HND METAR and TAF weather

Enter ICAO airport designator
Station Type Date Time Source
RJTT METAR 2021/09/24 00:00 UTC NOAA

RJTT 240000Z 35008KT 9999 FEW030 26/16 Q1018 NOSIG


Station Type Date Time Source
RJTT Decoded METAR 2021/09/24 00:00 UTC NOAA

Tokyo International Airport, Japan (RJTT) 35-33N 139-47E 8M
Sep 23, 2021 - 08:00 PM EDT / 2021.09.24 0000 UTC
Wind: from the N (350 degrees) at 9 MPH (8 KT):0
Visibility: greater than 7 mile(s):0
Sky conditions: mostly clear
Temperature: 78 F (26 C)
Dew Point: 60 F (16 C)
Relative Humidity: 54%
Pressure (altimeter): 30.06 in. Hg (1018 hPa)
ob: RJTT 240000Z 35008KT 9999 FEW030 26/16 Q1018 NOSIG
cycle: 0

Station Type Date Time Source
RJTT TAF 2021/09/23 18:28 UTC NOAA

TAF RJTT 231709Z 2318/2500 02006KT 9999 FEW010 SCT030
BECMG 2400/2402 08005KT
BECMG 2406/2409 18010KT
BECMG 2412/2415 02012KT

Example: see airport list